Airfield :
LOGIN :

Register | Disclaimer

   EN    FR    IT 

 










Legend :    VFR   Marginal VFR   IFR   Intensive IFR   Very Intensive IFR
Visi :
Ceiling :
>= 8 km
>= 3000ft
5 to 8 km
1000 to 3000 ft
1500m to 5 km
500 to 1000 ft
800 to 1500m
200 to 500 ft
< 800m
< 200 ft
Symbols :   Thunderstorms  Fog  Heavy snow  Heavy precipitations  Wind > 20 kt
SIGMETs :     Misc.  Thunderstorms  Icing  Turbulence  Mountain Waves  Volcanic Ashes






- Airport Elevation : 512 ft
- IATA code : URO


LFOP - Rouen Vallée de Seine

CURRENT METAR :
  • 250830Z AUTO 10005KT 070V150 CAVOK 18/11 Q1035 NOSIG

EXPIRED METARs :
  • 250800Z AUTO 08005KT 040V140 CAVOK 17/11 Q1034 NOSIG
  • 250730Z AUTO 07005KT 040V100 CAVOK 16/11 Q1034 NOSIG
  • 250700Z AUTO VRB03KT CAVOK 15/11 Q1034 NOSIG
  • 250630Z AUTO 02003KT 340V050 CAVOK 14/10 Q1034 NOSIG
  • 250600Z AUTO 00000KT CAVOK 12/10 Q1034 NOSIG

TAF TAF LFOP
Valid from the 25 at 06:00 until the 26 at 06:00 UTC


250500Z 2506/2606 VRB03KT CAVOK
BECMG 2511/2514 04010KT
BECMG 2519/2521 VRB03KT
ATIS : +33 2 35 80 80 34
Met : +33 2 32 86 52 80



MET'MAP, your aeronautical weather chart ! - Copyright ORBIFLY December 2007 - Disclaimer

ORBIFLY MET'MAP TEAM :

Programming & Development : Alexandra Zaïnal
Concept & original design : Baudouin d'Aumeries
Assistance for programming : Marc-Olivier Méhu
Technical & hardware support : Manuel Goepfert

Contact : metmap@orbifly.com




SOURCES & CREDITS :

   NOAA